KBLV/BLV METAR and TAF weather

Enter ICAO airport designator
Station Type Date Time Source
KBLV METAR 2018/04/21 20:56 UTC NOAA

KBLV 212056Z AUTO 10010G16KT 10SM OVC130 19/00 A3017 RMK AO2 SLP220 T01910002 57033 $


Station Type Date Time Source
KBLV Decoded METAR 2018/04/21 20:56 UTC NOAA

Belleville, Scott AFB/MidAmerica Airport, IL, United States (KBLV) 38-33N 089-51W
Apr 21, 2018 - 04:56 PM EDT / 2018.04.21 2056 UTC
Wind: from the E (100 degrees) at 12 MPH (10 KT) gusting to 18 MPH (16 KT):0
Visibility: 10 mile(s):0
Sky conditions: overcast
Temperature: 66.4 F (19.1 C)
Dew Point: 32.4 F (0.2 C)
Relative Humidity: 28%
Pressure (altimeter): 30.17 in. Hg (1021 hPa)
Pressure tendency: 0.10 inches (3.3 hPa) lower than three hours ago
ob: KBLV 212056Z AUTO 10010G16KT 10SM OVC130 19/00 A3017 RMK AO2 SLP220 T01910002 57033
cycle: 21

Station Type Date Time Source
KBLV TAF 2018/04/21 16:03 UTC NOAA

TAF TAF KBLV 211600Z 2116/2222 08012KT 9999 BKN180 QNH3015INS
BECMG 2208/2209 09009KT 8000 -SHRA BKN050 OVC100 QNH3008INS
BECMG 2217/2218 07012G18KT 8000 -SHRA OVC050 QNH3003INS
TEMPO 2220/2222 08015G25KT TX20/2121Z TN08/2212Z


Example: see airport list